createdAt,value
2022-11-10T00:02:10.150Z,101615.25
2022-11-10T00:04:37.879Z,101617.56
2022-11-10T00:07:05.758Z,101622.59
2022-11-10T00:09:35.047Z,101633.28
2022-11-10T00:12:02.892Z,101632.09
2022-11-10T00:14:48.275Z,101630.72
2022-11-10T00:17:16.025Z,101630.66
2022-11-10T00:19:43.710Z,101634.75
2022-11-10T00:22:11.453Z,101645.47
2022-11-10T00:24:40.520Z,101637.00
2022-11-10T00:27:08.186Z,101630.22
2022-11-10T00:29:36.172Z,101629.91
2022-11-10T00:32:03.863Z,101636.97
2022-11-10T00:34:31.659Z,101641.13
2022-11-10T00:36:59.444Z,101647.56
2022-11-10T00:39:27.229Z,101646.31
2022-11-10T00:41:56.748Z,101645.94
2022-11-10T00:44:24.693Z,101648.22
2022-11-10T00:46:52.545Z,101648.88
2022-11-10T00:49:20.352Z,101648.50
2022-11-10T00:51:48.076Z,101654.31
2022-11-10T00:54:15.886Z,101647.34
2022-11-10T00:56:43.596Z,101650.19
2022-11-10T00:59:12.668Z,101658.25
2022-11-10T01:01:40.749Z,101657.84
2022-11-10T01:04:08.872Z,101664.66
2022-11-10T01:06:36.609Z,101661.53
2022-11-10T01:09:04.547Z,101669.34
2022-11-10T01:11:32.217Z,101662.47
2022-11-10T01:13:59.914Z,101657.91
2022-11-10T01:16:33.228Z,101652.56
2022-11-10T01:19:03.318Z,101650.63
2022-11-10T01:21:31.900Z,101654.72
2022-11-10T01:23:59.729Z,101648.91
2022-11-10T01:26:27.586Z,101650.41
2022-11-10T01:28:55.279Z,101652.63
2022-11-10T01:31:23.811Z,101655.31
2022-11-10T01:33:52.952Z,101659.31
2022-11-10T01:36:20.653Z,101657.69
2022-11-10T01:38:48.435Z,101664.88
2022-11-10T01:41:16.543Z,101669.31
2022-11-10T01:43:44.673Z,101671.09
2022-11-10T01:46:14.172Z,101663.78
2022-11-10T01:48:46.125Z,101675.13
2022-11-10T01:51:20.110Z,101672.75
2022-11-10T01:53:51.689Z,101673.53
2022-11-10T01:56:20.217Z,101680.72
2022-11-10T01:58:51.612Z,101678.69
2022-11-10T02:01:19.671Z,101673.56
2022-11-10T02:03:51.157Z,101678.78
2022-11-10T02:06:23.699Z,101679.59
2022-11-10T02:08:52.353Z,101684.84
2022-11-10T02:11:20.336Z,101678.16
2022-11-10T02:13:48.553Z,101681.28
2022-11-10T02:16:16.549Z,101689.78
2022-11-10T02:18:44.301Z,101684.84
2022-11-10T02:21:17.777Z,101692.81
2022-11-10T02:23:46.726Z,101683.50
2022-11-10T02:26:17.223Z,101700.53
2022-11-10T02:28:44.925Z,101697.31
2022-11-10T02:31:12.888Z,101697.13
2022-11-10T02:33:40.705Z,101705.91
2022-11-10T02:36:09.260Z,101709.38
2022-11-10T02:38:38.502Z,101709.44
2022-11-10T02:41:06.585Z,101701.03
2022-11-10T02:43:34.833Z,101695.19
2022-11-10T02:46:10.978Z,101701.25
2022-11-10T02:48:38.789Z,101689.50
2022-11-10T02:51:06.608Z,101699.63
2022-11-10T02:53:34.311Z,101693.59
2022-11-10T02:56:03.370Z,101702.50
2022-11-10T02:58:31.066Z,101690.47
2022-11-10T03:00:58.939Z,101698.75
2022-11-10T03:03:27.267Z,101697.28
2022-11-10T03:05:55.048Z,101696.09
2022-11-10T03:08:22.744Z,101696.03
2022-11-10T03:10:54.836Z,101697.66
2022-11-10T03:13:24.372Z,101697.75
2022-11-10T03:15:52.677Z,101696.72
2022-11-10T03:18:20.556Z,101694.47
2022-11-10T03:20:49.965Z,101702.47
2022-11-10T03:23:18.856Z,101702.44
2022-11-10T03:25:47.065Z,101707.59
2022-11-10T03:28:14.916Z,101695.34
2022-11-10T03:30:44.549Z,101705.34
2022-11-10T03:33:12.432Z,101692.38
2022-11-10T03:35:40.140Z,101699.59
2022-11-10T03:38:07.914Z,101703.91
2022-11-10T03:40:50.896Z,101702.13
2022-11-10T03:43:23.719Z,101707.66
2022-11-10T03:45:53.052Z,101709.63
2022-11-10T03:48:20.712Z,101711.56
2022-11-10T03:50:48.403Z,101708.13
2022-11-10T03:53:16.155Z,101707.34
2022-11-10T03:55:43.848Z,101703.94
2022-11-10T03:58:11.610Z,101704.09
2022-11-10T04:00:39.393Z,101707.41
2022-11-10T04:03:08.769Z,101710.06
2022-11-10T04:05:54.318Z,101709.19
2022-11-10T04:08:39.631Z,101710.69
2022-11-10T04:11:07.390Z,101718.16
2022-11-10T04:13:52.818Z,101724.84
2022-11-10T04:16:20.600Z,101726.53
2022-11-10T04:18:49.657Z,101731.03
2022-11-10T04:21:17.394Z,101735.28
2022-11-10T04:23:45.102Z,101729.75
2022-11-10T04:26:29.966Z,101733.47
2022-11-10T04:28:59.956Z,101743.16
2022-11-10T04:31:29.498Z,101741.47
2022-11-10T04:33:59.729Z,101738.00
2022-11-10T04:36:28.924Z,101739.47
2022-11-10T04:38:57.138Z,101759.19
2022-11-10T04:41:26.394Z,101758.31
2022-11-10T04:43:54.161Z,101758.31
2022-11-10T04:46:24.343Z,101750.63
2022-11-10T04:48:52.599Z,101756.66
2022-11-10T04:51:23.348Z,101765.78
2022-11-10T04:53:51.164Z,101768.06
2022-11-10T04:56:20.140Z,101768.00
2022-11-10T04:58:48.597Z,101774.91
2022-11-10T05:01:19.096Z,101772.66
2022-11-10T05:03:47.443Z,101775.81
2022-11-10T05:06:15.761Z,101771.69
2022-11-10T05:08:45.799Z,101765.38
2022-11-10T05:11:13.805Z,101770.56
2022-11-10T05:13:41.806Z,101767.19
2022-11-10T05:16:09.649Z,101760.03
2022-11-10T05:18:37.811Z,101760.75
2022-11-10T05:21:05.596Z,101766.19
2022-11-10T05:23:39.293Z,101757.19
2022-11-10T05:26:10.888Z,101769.59
2022-11-10T05:28:38.658Z,101764.69
2022-11-10T05:31:07.119Z,101770.31
2022-11-10T05:33:35.316Z,101773.09
2022-11-10T05:36:05.614Z,101778.59
2022-11-10T05:38:33.396Z,101777.66
2022-11-10T05:41:01.177Z,101777.75
2022-11-10T05:43:30.224Z,101782.88
2022-11-10T05:45:57.988Z,101779.25
2022-11-10T05:48:25.672Z,101784.72
2022-11-10T05:50:53.426Z,101783.78
2022-11-10T05:53:21.639Z,101782.28
2022-11-10T05:55:49.624Z,101783.78
2022-11-10T05:58:17.371Z,101798.09
2022-11-10T06:00:46.493Z,101799.09
2022-11-10T06:03:16.437Z,101803.59
2022-11-10T06:05:44.584Z,101808.56
2022-11-10T06:08:12.569Z,101804.97
2022-11-10T06:10:41.125Z,101798.75
2022-11-10T06:13:08.916Z,101801.94
2022-11-10T06:15:36.621Z,101795.13
2022-11-10T06:18:06.019Z,101798.50
2022-11-10T06:20:33.909Z,101797.72
2022-11-10T06:23:03.225Z,101801.00
2022-11-10T06:25:31.963Z,101804.13
2022-11-10T06:27:59.976Z,101804.00
2022-11-10T06:30:29.421Z,101800.34
2022-11-10T06:32:57.485Z,101807.59
2022-11-10T06:35:27.813Z,101795.97
2022-11-10T06:38:00.049Z,101789.13
2022-11-10T06:40:28.122Z,101792.31
2022-11-10T06:42:56.293Z,101784.53
2022-11-10T06:45:24.940Z,101782.88
2022-11-10T06:48:00.843Z,101797.00
2022-11-10T06:50:32.272Z,101811.81
2022-11-10T06:53:01.155Z,101815.28
2022-11-10T06:55:29.421Z,101819.78
2022-11-10T06:57:57.753Z,101816.63
2022-11-10T07:00:26.231Z,101813.09
2022-11-10T07:03:00.650Z,101828.50
2022-11-10T07:05:30.095Z,101819.63
2022-11-10T07:08:02.316Z,101823.72
2022-11-10T07:10:30.019Z,101829.41
2022-11-10T07:12:58.714Z,101844.47
2022-11-10T07:15:26.470Z,101838.97
2022-11-10T07:17:54.178Z,101844.47
2022-11-10T07:20:22.013Z,101848.56
2022-11-10T07:22:51.138Z,101845.69
2022-11-10T07:25:18.825Z,101843.69
2022-11-10T07:27:46.626Z,101850.03
2022-11-10T07:30:15.061Z,101854.19
2022-11-10T07:32:42.732Z,101858.00
2022-11-10T07:35:10.413Z,101852.53
2022-11-10T07:37:38.171Z,101855.09
2022-11-10T07:40:08.761Z,101866.28
2022-11-10T07:42:41.085Z,101879.63
2022-11-10T07:45:10.173Z,101889.03
2022-11-10T07:47:37.907Z,101897.09
2022-11-10T07:50:06.517Z,101895.22
2022-11-10T07:52:34.597Z,101896.41
2022-11-10T07:55:02.357Z,101899.91
2022-11-10T07:57:31.429Z,101895.72
2022-11-10T07:59:59.210Z,101902.72
2022-11-10T08:02:27.104Z,101906.03
2022-11-10T08:04:54.811Z,101911.38
2022-11-10T08:07:22.653Z,101918.13
2022-11-10T08:09:50.571Z,101922.81
2022-11-10T08:12:18.301Z,101937.00
2022-11-10T08:14:47.372Z,101936.53
2022-11-10T08:17:15.082Z,101939.09
2022-11-10T08:19:42.826Z,101940.72
2022-11-10T08:22:10.527Z,101947.06
2022-11-10T08:24:38.299Z,101956.31
2022-11-10T08:27:06.301Z,101958.09
2022-11-10T08:29:33.977Z,101957.47
2022-11-10T08:32:03.066Z,101952.44
2022-11-10T08:34:30.756Z,101960.06
2022-11-10T08:36:58.462Z,101956.88
2022-11-10T08:39:38.658Z,101958.63
2022-11-10T08:42:07.332Z,101951.13
2022-11-10T08:44:35.126Z,101954.81
2022-11-10T08:47:04.310Z,101954.00
2022-11-10T08:49:32.045Z,101959.44
2022-11-10T08:51:59.708Z,101951.66
2022-11-10T08:54:27.463Z,101954.56
2022-11-10T08:56:55.624Z,101959.34
2022-11-10T08:59:23.309Z,101949.81
2022-11-10T09:01:51.020Z,101953.06
2022-11-10T09:04:20.211Z,101961.19
2022-11-10T09:06:48.052Z,101963.19
2022-11-10T09:09:15.901Z,101957.38
2022-11-10T09:11:43.637Z,101962.66
2022-11-10T09:14:11.460Z,101964.78
2022-11-10T09:16:39.147Z,101975.31
2022-11-10T09:19:06.876Z,101975.69
2022-11-10T09:21:37.016Z,101974.50
2022-11-10T09:24:05.126Z,101970.84
2022-11-10T09:26:33.804Z,101976.22
2022-11-10T09:29:01.572Z,101973.53
2022-11-10T09:31:29.325Z,101976.34
2022-11-10T09:33:57.070Z,101975.22
2022-11-10T09:36:24.780Z,101979.22
2022-11-10T09:38:54.058Z,101981.25
2022-11-10T09:41:21.996Z,101976.25
2022-11-10T09:43:59.420Z,101985.06
2022-11-10T09:46:30.624Z,101990.81
2022-11-10T09:49:04.816Z,101990.84
2022-11-10T09:51:37.049Z,101998.78
2022-11-10T09:54:15.326Z,102006.06
2022-11-10T09:56:43.090Z,102006.91
2022-11-10T09:59:17.532Z,102008.66
2022-11-10T10:01:50.024Z,102016.06
2022-11-10T10:04:52.414Z,102019.75
2022-11-10T10:07:26.101Z,102015.03
2022-11-10T10:10:03.519Z,102022.00
2022-11-10T10:12:53.388Z,102026.00
2022-11-10T10:15:30.941Z,102025.88
2022-11-10T10:18:18.435Z,102027.66
2022-11-10T10:20:57.293Z,102033.97
2022-11-10T10:23:53.904Z,102028.59
2022-11-10T10:26:24.474Z,102030.22
2022-11-10T10:28:53.143Z,102030.63
2022-11-10T10:31:24.292Z,102034.81
2022-11-10T10:33:53.234Z,102026.13
2022-11-10T10:36:24.800Z,102029.34
2022-11-10T10:38:55.887Z,102032.69
2022-11-10T10:41:27.396Z,102022.31
2022-11-10T10:43:58.036Z,102031.97
2022-11-10T10:46:32.891Z,102025.00
2022-11-10T10:49:28.094Z,102016.78
2022-11-10T10:52:05.498Z,102020.13
2022-11-10T10:54:35.378Z,102017.16
2022-11-10T10:57:07.388Z,102006.72
2022-11-10T10:59:35.565Z,102009.69
2022-11-10T11:02:03.229Z,102021.59
2022-11-10T11:04:34.094Z,102015.22
2022-11-10T11:07:03.669Z,102019.91
2022-11-10T11:09:40.617Z,102020.56
2022-11-10T11:12:13.454Z,102022.75
2022-11-10T11:14:45.754Z,102026.94
2022-11-10T11:17:15.732Z,102029.22
2022-11-10T11:19:43.492Z,102035.97
2022-11-10T11:22:46.933Z,102040.38
2022-11-10T11:25:23.697Z,102044.78
2022-11-10T11:28:03.679Z,102043.59
2022-11-10T11:30:47.871Z,102041.63
2022-11-10T11:33:34.456Z,102047.88
2022-11-10T11:36:10.360Z,102041.16
2022-11-10T11:38:51.703Z,102033.00
2022-11-10T11:41:26.421Z,102029.09
2022-11-10T11:44:19.045Z,102031.78
2022-11-10T11:46:54.256Z,102037.59
2022-11-10T11:49:39.441Z,102032.69
2022-11-10T11:52:14.431Z,102035.28
2022-11-10T11:55:04.547Z,102032.03
2022-11-10T11:57:41.036Z,102039.59
2022-11-10T12:00:14.160Z,102038.63
2022-11-10T12:02:52.764Z,102038.28
2022-11-10T12:05:36.591Z,102034.97
2022-11-10T12:08:16.108Z,102034.34
2022-11-10T12:10:55.985Z,102040.28
2022-11-10T12:13:37.888Z,102028.41
2022-11-10T12:16:16.328Z,102037.06
2022-11-10T12:18:51.046Z,102034.09
2022-11-10T12:21:28.064Z,102032.34
2022-11-10T12:24:10.376Z,102033.50
2022-11-10T12:26:44.675Z,102038.50
2022-11-10T12:29:20.153Z,102038.06
2022-11-10T12:31:54.631Z,102049.56
2022-11-10T12:34:31.842Z,102045.88
2022-11-10T12:37:02.805Z,102045.31
2022-11-10T12:39:41.345Z,102044.22
2022-11-10T12:42:15.424Z,102035.56
2022-11-10T12:44:59.498Z,102051.31
2022-11-10T12:47:33.104Z,102037.38
2022-11-10T12:50:12.136Z,102040.47
2022-11-10T12:52:45.624Z,102036.16
2022-11-10T12:55:14.824Z,102031.94
2022-11-10T12:57:45.034Z,102035.38
2022-11-10T13:00:28.204Z,102033.91
2022-11-10T13:02:58.863Z,102037.06
2022-11-10T13:05:38.704Z,102028.88
2022-11-10T13:08:17.610Z,102032.56
2022-11-10T13:10:57.515Z,102022.78
2022-11-10T13:13:25.762Z,102019.69
2022-11-10T13:15:55.701Z,102016.53
2022-11-10T13:18:42.190Z,102014.97
2022-11-10T13:21:09.982Z,102007.84
2022-11-10T13:24:10.892Z,102010.19
2022-11-10T13:26:52.625Z,102009.22
2022-11-10T13:29:29.496Z,102012.38
2022-11-10T13:31:59.005Z,101997.22
2022-11-10T13:34:33.662Z,102004.69
2022-11-10T13:37:02.343Z,102000.91
2022-11-10T13:39:32.491Z,101996.44
2022-11-10T13:42:03.979Z,101994.91
2022-11-10T13:44:35.096Z,102000.69
2022-11-10T13:47:18.381Z,102002.44
2022-11-10T13:50:02.959Z,102004.09
2022-11-10T13:52:43.980Z,101998.84
2022-11-10T13:55:32.676Z,101998.56
2022-11-10T13:58:02.849Z,101991.13
2022-11-10T14:00:32.331Z,101992.53
2022-11-10T14:03:02.011Z,101993.81
2022-11-10T14:06:07.354Z,101990.47
2022-11-10T14:08:50.494Z,101991.66
2022-11-10T14:11:26.467Z,101992.88
2022-11-10T14:14:00.130Z,101980.56
2022-11-10T14:16:32.006Z,101973.63
2022-11-10T14:19:05.391Z,101977.31
2022-11-10T14:21:46.461Z,101981.94
2022-11-10T14:24:23.276Z,101971.34
2022-11-10T14:26:53.425Z,101967.09
2022-11-10T14:29:35.783Z,101974.16
2022-11-10T14:32:06.668Z,101972.50
2022-11-10T14:34:44.326Z,101975.03
2022-11-10T14:37:18.725Z,101968.97
2022-11-10T14:39:46.690Z,101975.31
2022-11-10T14:42:19.605Z,101973.44
2022-11-10T14:44:48.617Z,101987.81
2022-11-10T14:47:24.864Z,101987.72
2022-11-10T14:50:07.261Z,101986.44
2022-11-10T14:52:41.104Z,101995.34
2022-11-10T14:55:14.670Z,101996.41
2022-11-10T14:57:42.890Z,101998.75
2022-11-10T15:00:16.011Z,102004.75
2022-11-10T15:02:44.387Z,102009.81
2022-11-10T15:05:15.948Z,102014.84
2022-11-10T15:07:46.772Z,102019.47
2022-11-10T15:10:18.495Z,102022.25
2022-11-10T15:12:58.540Z,102020.72
2022-11-10T15:15:26.367Z,102025.38
2022-11-10T15:17:55.266Z,102031.66
2022-11-10T15:20:32.512Z,102029.50
2022-11-10T15:23:03.514Z,102028.03
2022-11-10T15:25:36.906Z,102035.44
2022-11-10T15:28:13.569Z,102027.97
2022-11-10T15:30:50.380Z,102035.72
2022-11-10T15:33:27.452Z,102037.88
2022-11-10T15:35:56.756Z,102038.31
2022-11-10T15:38:31.602Z,102037.88
2022-11-10T15:41:17.020Z,102041.34
2022-11-10T15:43:44.799Z,102045.22
2022-11-10T15:46:18.198Z,102054.69
2022-11-10T15:48:48.500Z,102048.72
2022-11-10T15:51:24.508Z,102048.81
2022-11-10T15:53:55.450Z,102046.06
2022-11-10T15:56:25.615Z,102042.75
2022-11-10T15:59:00.586Z,102048.94
2022-11-10T16:01:31.383Z,102061.66
2022-11-10T16:03:59.353Z,102058.88
2022-11-10T16:06:27.471Z,102059.56
2022-11-10T16:08:56.521Z,102060.81
2022-11-10T16:11:24.677Z,102073.84
2022-11-10T16:13:54.029Z,102070.53
2022-11-10T16:16:23.890Z,102068.13
2022-11-10T16:18:52.175Z,102075.44
2022-11-10T16:21:21.545Z,102075.00
2022-11-10T16:23:50.567Z,102085.03
2022-11-10T16:26:23.202Z,102075.28
2022-11-10T16:28:51.640Z,102077.38
2022-11-10T16:31:21.862Z,102069.63
2022-11-10T16:33:50.437Z,102064.84
2022-11-10T16:36:24.718Z,102072.31
2022-11-10T16:38:53.027Z,102075.13
2022-11-10T16:41:23.525Z,102070.59
2022-11-10T16:43:51.370Z,102077.19
2022-11-10T16:46:22.876Z,102079.66
2022-11-10T16:48:52.099Z,102081.56
2022-11-10T16:51:19.865Z,102079.81
2022-11-10T16:53:47.797Z,102088.31
2022-11-10T16:56:16.999Z,102088.41
2022-11-10T16:58:46.020Z,102091.19
2022-11-10T17:01:20.171Z,102089.84
2022-11-10T17:03:51.212Z,102094.16
2022-11-10T17:06:21.531Z,102094.22
2022-11-10T17:08:51.176Z,102098.16
2022-11-10T17:11:19.192Z,102093.44
2022-11-10T17:13:48.236Z,102101.06
2022-11-10T17:16:22.695Z,102096.72
2022-11-10T17:18:51.816Z,102102.75
2022-11-10T17:21:20.220Z,102099.09
2022-11-10T17:23:48.050Z,102103.56
2022-11-10T17:26:18.491Z,102097.88
2022-11-10T17:28:46.261Z,102094.91
2022-11-10T17:31:15.785Z,102098.63
2022-11-10T17:33:43.491Z,102102.44
2022-11-10T17:36:15.389Z,102100.78
2022-11-10T17:38:44.012Z,102108.94
2022-11-10T17:41:16.610Z,102108.22
2022-11-10T17:43:45.975Z,102107.91
2022-11-10T17:46:16.083Z,102103.63
2022-11-10T17:48:44.295Z,102108.69
2022-11-10T17:51:19.414Z,102107.09
2022-11-10T17:53:47.308Z,102109.44
2022-11-10T17:56:15.255Z,102111.75
2022-11-10T17:58:43.103Z,102106.69
2022-11-10T18:01:18.464Z,102110.09
2022-11-10T18:03:46.488Z,102117.00
2022-11-10T18:06:15.029Z,102123.66
2022-11-10T18:08:43.269Z,102122.22
2022-11-10T18:11:12.574Z,102116.84
2022-11-10T18:13:41.625Z,102115.38
2022-11-10T18:16:09.980Z,102122.66
2022-11-10T18:18:39.372Z,102125.50
2022-11-10T18:21:08.044Z,102129.25
2022-11-10T18:23:35.855Z,102134.69
2022-11-10T18:26:05.383Z,102124.06
2022-11-10T18:28:34.040Z,102124.16
2022-11-10T18:31:07.693Z,102126.75
2022-11-10T18:33:36.803Z,102119.88
2022-11-10T18:36:06.317Z,102121.66
2022-11-10T18:38:34.110Z,102130.09
2022-11-10T18:41:25.535Z,102119.72
2022-11-10T18:43:53.578Z,102126.72
2022-11-10T18:46:21.316Z,102135.84
2022-11-10T18:48:49.127Z,102135.91
2022-11-10T18:51:18.374Z,102134.22
2022-11-10T18:53:46.045Z,102139.25
2022-11-10T18:56:14.371Z,102136.38
2022-11-10T18:58:42.208Z,102153.28
2022-11-10T19:01:11.258Z,102149.59
2022-11-10T19:03:39.067Z,102155.59
2022-11-10T19:06:07.148Z,102160.00
2022-11-10T19:08:37.097Z,102153.84
2022-11-10T19:11:07.421Z,102160.44
2022-11-10T19:13:35.330Z,102158.66
2022-11-10T19:16:05.369Z,102160.50
2022-11-10T19:18:33.135Z,102156.78
2022-11-10T19:21:05.560Z,102156.25
2022-11-10T19:23:33.376Z,102148.25
2022-11-10T19:26:03.018Z,102137.97
2022-11-10T19:28:31.029Z,102139.78
2022-11-10T19:31:02.275Z,102148.06
2022-11-10T19:33:31.206Z,102149.06
2022-11-10T19:36:04.290Z,102149.16
2022-11-10T19:38:32.280Z,102159.00
2022-11-10T19:41:03.735Z,102163.22
2022-11-10T19:43:32.883Z,102166.22
2022-11-10T19:46:02.784Z,102164.47
2022-11-10T19:48:31.455Z,102175.00
2022-11-10T19:51:00.561Z,102173.94
2022-11-10T19:53:28.610Z,102164.19
2022-11-10T19:56:03.389Z,102160.78
2022-11-10T19:58:32.505Z,102157.06
2022-11-10T20:01:01.945Z,102160.19
2022-11-10T20:03:30.207Z,102163.03
2022-11-10T20:06:02.982Z,102164.03
2022-11-10T20:08:31.040Z,102166.72
2022-11-10T20:11:01.293Z,102173.88
2022-11-10T20:13:29.076Z,102158.13
2022-11-10T20:15:58.257Z,102163.66
2022-11-10T20:18:26.110Z,102160.56
2022-11-10T20:20:53.779Z,102167.59
2022-11-10T20:23:21.729Z,102162.31
2022-11-10T20:25:49.539Z,102162.09
2022-11-10T20:28:17.459Z,102157.28
2022-11-10T20:30:45.450Z,102164.84
2022-11-10T20:33:14.563Z,102167.16
2022-11-10T20:35:43.840Z,102160.16
2022-11-10T20:38:12.208Z,102164.84
2022-11-10T20:40:44.742Z,102173.47
2022-11-10T20:43:14.699Z,102187.41
2022-11-10T20:45:42.589Z,102189.31
2022-11-10T20:48:10.320Z,102179.91
2022-11-10T20:50:41.672Z,102175.81
2022-11-10T20:53:09.388Z,102189.03
2022-11-10T20:55:53.267Z,102189.19
2022-11-10T20:58:21.468Z,102191.88
2022-11-10T21:00:49.161Z,102195.97
2022-11-10T21:03:17.000Z,102191.09
2022-11-10T21:05:46.084Z,102193.25
2022-11-10T21:08:13.785Z,102197.66
2022-11-10T21:10:41.604Z,102200.97
2022-11-10T21:13:08.307Z,102196.50
2022-11-10T21:15:39.128Z,102200.97
2022-11-10T21:18:06.888Z,102202.03
2022-11-10T21:20:34.998Z,102200.56
2022-11-10T21:23:04.087Z,102205.81
2022-11-10T21:25:31.865Z,102209.38
2022-11-10T21:27:59.784Z,102221.16
2022-11-10T21:30:27.555Z,102213.22
2022-11-10T21:32:55.296Z,102209.47
2022-11-10T21:35:23.483Z,102210.53
2022-11-10T21:37:51.174Z,102211.66
2022-11-10T21:40:20.520Z,102207.63
2022-11-10T21:42:48.257Z,102196.34
2022-11-10T21:45:17.862Z,102203.16
2022-11-10T21:47:45.568Z,102198.22
2022-11-10T21:50:13.371Z,102201.97
2022-11-10T21:52:41.062Z,102196.69
2022-11-10T21:55:09.937Z,102199.28
2022-11-10T21:57:38.964Z,102198.38
2022-11-10T22:00:07.868Z,102205.94
2022-11-10T22:02:35.649Z,102205.53
2022-11-10T22:05:03.380Z,102209.00
2022-11-10T22:07:31.090Z,102206.69
2022-11-10T22:10:16.509Z,102215.56
2022-11-10T22:13:03.249Z,102211.81
2022-11-10T22:15:48.578Z,102218.00
2022-11-10T22:18:35.361Z,102218.75
2022-11-10T22:21:03.332Z,102211.56
2022-11-10T22:23:48.387Z,102213.69
2022-11-10T22:26:16.213Z,102212.56
2022-11-10T22:28:45.802Z,102215.72
2022-11-10T22:31:14.139Z,102213.03
2022-11-10T22:33:43.296Z,102215.00
2022-11-10T22:36:13.348Z,102210.09
2022-11-10T22:38:42.636Z,102212.50
2022-11-10T22:41:32.576Z,102209.75
2022-11-10T22:44:04.983Z,102225.69
2022-11-10T22:46:34.451Z,102232.16
2022-11-10T22:49:02.708Z,102230.97
2022-11-10T22:51:32.149Z,102237.94
2022-11-10T22:54:00.402Z,102236.72
2022-11-10T22:56:28.650Z,102239.81
2022-11-10T22:58:59.864Z,102250.19
2022-11-10T23:01:29.546Z,102251.00
2022-11-10T23:03:58.969Z,102242.94
2022-11-10T23:06:26.786Z,102249.34
2022-11-10T23:08:54.871Z,102253.66
2022-11-10T23:11:25.403Z,102248.53
2022-11-10T23:13:53.213Z,102247.78
2022-11-10T23:16:23.276Z,102247.09
2022-11-10T23:18:53.519Z,102243.75
2022-11-10T23:21:23.377Z,102247.06
2022-11-10T23:23:53.412Z,102245.22
2022-11-10T23:26:22.513Z,102252.53
2022-11-10T23:28:50.444Z,102250.03
2022-11-10T23:31:20.024Z,102255.63
2022-11-10T23:33:49.703Z,102250.81
2022-11-10T23:36:20.495Z,102258.75
2022-11-10T23:38:49.046Z,102256.16
2022-11-10T23:41:18.896Z,102257.09
2022-11-10T23:43:47.453Z,102262.25
2022-11-10T23:46:15.162Z,102256.16
2022-11-10T23:48:43.670Z,102258.34
2022-11-10T23:51:13.810Z,102267.22
2022-11-10T23:53:43.097Z,102260.34
2022-11-10T23:56:13.187Z,102259.75
2022-11-10T23:58:41.322Z,102257.13
